sensor_id;sensor_type;location;lat;lon;timestamp;P1;durP1;ratioP1;P2;durP2;ratioP2
18818;SDS011;9537;45.594;9.294;2022-07-23T00:00:59;6.68;;;5.57;;
18818;SDS011;9537;45.594;9.294;2022-07-23T00:02:01;8.88;;;5.75;;
18818;SDS011;9537;45.594;9.294;2022-07-23T00:03:03;7.10;;;4.95;;
18818;SDS011;9537;45.594;9.294;2022-07-23T00:04:05;7.50;;;5.47;;
18818;SDS011;9537;45.594;9.294;2022-07-23T00:05:07;6.55;;;5.45;;
18818;SDS011;9537;45.594;9.294;2022-07-23T00:06:08;10.13;;;5.60;;
18818;SDS011;9537;45.594;9.294;2022-07-23T00:07:10;7.70;;;6.13;;
18818;SDS011;9537;45.594;9.294;2022-07-23T00:08:11;7.60;;;5.35;;
18818;SDS011;9537;45.594;9.294;2022-07-23T00:09:13;7.70;;;5.60;;
18818;SDS011;9537;45.594;9.294;2022-07-23T00:10:14;8.70;;;5.63;;
18818;SDS011;9537;45.594;9.294;2022-07-23T00:11:18;6.03;;;5.38;;
18818;SDS011;9537;45.594;9.294;2022-07-23T00:12:19;7.60;;;5.57;;
18818;SDS011;9537;45.594;9.294;2022-07-23T00:13:22;8.30;;;4.90;;
18818;SDS011;9537;45.594;9.294;2022-07-23T00:14:22;7.72;;;5.35;;
18818;SDS011;9537;45.594;9.294;2022-07-23T00:15:24;7.43;;;5.10;;
18818;SDS011;9537;45.594;9.294;2022-07-23T00:16:25;6.05;;;5.38;;
18818;SDS011;9537;45.594;9.294;2022-07-23T00:17:29;5.70;;;5.03;;
18818;SDS011;9537;45.594;9.294;2022-07-23T00:18:30;7.72;;;5.32;;
18818;SDS011;9537;45.594;9.294;2022-07-23T00:19:32;7.30;;;5.47;;
18818;SDS011;9537;45.594;9.294;2022-07-23T00:20:33;8.10;;;5.70;;
18818;SDS011;9537;45.594;9.294;2022-07-23T00:21:35;6.47;;;5.22;;
18818;SDS011;9537;45.594;9.294;2022-07-23T00:22:36;7.13;;;5.15;;
18818;SDS011;9537;45.594;9.294;2022-07-23T00:23:46;7.22;;;5.30;;
18818;SDS011;9537;45.594;9.294;2022-07-23T00:24:47;11.77;;;5.70;;
18818;SDS011;9537;45.594;9.294;2022-07-23T00:25:49;7.03;;;5.40;;
18818;SDS011;9537;45.594;9.294;2022-07-23T00:26:50;7.68;;;5.25;;
18818;SDS011;9537;45.594;9.294;2022-07-23T00:27:52;6.47;;;5.40;;
18818;SDS011;9537;45.594;9.294;2022-07-23T00:28:53;6.63;;;5.03;;
18818;SDS011;9537;45.594;9.294;2022-07-23T00:29:55;6.65;;;5.43;;
18818;SDS011;9537;45.594;9.294;2022-07-23T00:30:56;6.55;;;5.35;;
18818;SDS011;9537;45.594;9.294;2022-07-23T00:31:58;7.45;;;5.68;;
18818;SDS011;9537;45.594;9.294;2022-07-23T00:33:00;7.93;;;5.53;;
18818;SDS011;9537;45.594;9.294;2022-07-23T00:34:03;6.50;;;5.68;;
18818;SDS011;9537;45.594;9.294;2022-07-23T00:35:05;7.78;;;5.10;;
18818;SDS011;9537;45.594;9.294;2022-07-23T00:36:07;6.43;;;5.55;;
18818;SDS011;9537;45.594;9.294;2022-07-23T00:37:08;7.70;;;4.95;;
18818;SDS011;9537;45.594;9.294;2022-07-23T00:38:11;7.15;;;5.60;;
18818;SDS011;9537;45.594;9.294;2022-07-23T00:39:12;6.25;;;5.05;;
18818;SDS011;9537;45.594;9.294;2022-07-23T00:40:14;6.88;;;5.57;;
18818;SDS011;9537;45.594;9.294;2022-07-23T00:41:15;6.78;;;5.38;;
18818;SDS011;9537;45.594;9.294;2022-07-23T00:42:17;11.13;;;6.60;;
18818;SDS011;9537;45.594;9.294;2022-07-23T00:43:19;6.38;;;5.65;;
18818;SDS011;9537;45.594;9.294;2022-07-23T00:44:22;11.77;;;5.88;;
18818;SDS011;9537;45.594;9.294;2022-07-23T00:45:25;6.78;;;5.35;;
18818;SDS011;9537;45.594;9.294;2022-07-23T00:46:26;9.23;;;5.82;;
18818;SDS011;9537;45.594;9.294;2022-07-23T00:47:28;6.40;;;5.35;;
18818;SDS011;9537;45.594;9.294;2022-07-23T00:48:30;8.32;;;4.95;;
18818;SDS011;9537;45.594;9.294;2022-07-23T00:49:32;8.80;;;5.03;;
18818;SDS011;9537;45.594;9.294;2022-07-23T00:50:33;12.82;;;5.50;;
18818;SDS011;9537;45.594;9.294;2022-07-23T00:51:35;6.60;;;5.20;;
18818;SDS011;9537;45.594;9.294;2022-07-23T00:52:37;7.63;;;5.88;;
18818;SDS011;9537;45.594;9.294;2022-07-23T00:53:40;6.28;;;5.68;;
18818;SDS011;9537;45.594;9.294;2022-07-23T00:54:42;10.13;;;5.47;;
18818;SDS011;9537;45.594;9.294;2022-07-23T00:55:44;5.82;;;5.30;;
18818;SDS011;9537;45.594;9.294;2022-07-23T00:56:45;10.55;;;5.50;;
18818;SDS011;9537;45.594;9.294;2022-07-23T00:57:48;6.30;;;5.55;;
18818;SDS011;9537;45.594;9.294;2022-07-23T00:58:50;8.13;;;5.60;;
18818;SDS011;9537;45.594;9.294;2022-07-23T00:59:52;7.78;;;5.32;;
18818;SDS011;9537;45.594;9.294;2022-07-23T01:00:53;7.55;;;5.70;;
18818;SDS011;9537;45.594;9.294;2022-07-23T01:01:55;8.25;;;5.82;;
18818;SDS011;9537;45.594;9.294;2022-07-23T01:02:56;6.90;;;5.70;;
18818;SDS011;9537;45.594;9.294;2022-07-23T01:04:00;6.35;;;5.40;;
18818;SDS011;9537;45.594;9.294;2022-07-23T01:05:01;6.43;;;5.35;;
18818;SDS011;9537;45.594;9.294;2022-07-23T01:06:03;8.00;;;6.03;;
18818;SDS011;9537;45.594;9.294;2022-07-23T01:07:04;9.18;;;5.75;;
18818;SDS011;9537;45.594;9.294;2022-07-23T01:08:06;6.55;;;5.75;;
18818;SDS011;9537;45.594;9.294;2022-07-23T01:09:07;8.73;;;6.68;;
18818;SDS011;9537;45.594;9.294;2022-07-23T01:10:09;5.80;;;5.30;;
18818;SDS011;9537;45.594;9.294;2022-07-23T01:11:25;6.07;;;5.47;;
18818;SDS011;9537;45.594;9.294;2022-07-23T01:12:27;9.13;;;5.68;;
18818;SDS011;9537;45.594;9.294;2022-07-23T01:13:29;8.20;;;5.63;;
18818;SDS011;9537;45.594;9.294;2022-07-23T01:14:30;7.85;;;5.50;;
18818;SDS011;9537;45.594;9.294;2022-07-23T01:15:32;6.20;;;5.60;;
18818;SDS011;9537;45.594;9.294;2022-07-23T01:16:34;7.75;;;5.85;;
18818;SDS011;9537;45.594;9.294;2022-07-23T01:17:36;6.25;;;5.60;;
18818;SDS011;9537;45.594;9.294;2022-07-23T01:18:37;10.48;;;6.15;;
18818;SDS011;9537;45.594;9.294;2022-07-23T01:19:40;7.47;;;5.78;;
18818;SDS011;9537;45.594;9.294;2022-07-23T01:20:42;8.18;;;5.63;;
18818;SDS011;9537;45.594;9.294;2022-07-23T01:21:43;9.82;;;6.07;;
18818;SDS011;9537;45.594;9.294;2022-07-23T01:22:48;7.38;;;6.03;;
18818;SDS011;9537;45.594;9.294;2022-07-23T01:23:50;5.93;;;5.32;;
18818;SDS011;9537;45.594;9.294;2022-07-23T01:24:52;7.13;;;5.50;;
18818;SDS011;9537;45.594;9.294;2022-07-23T01:25:53;7.05;;;5.90;;
18818;SDS011;9537;45.594;9.294;2022-07-23T01:26:56;7.32;;;5.63;;
18818;SDS011;9537;45.594;9.294;2022-07-23T01:27:57;7.15;;;5.75;;
18818;SDS011;9537;45.594;9.294;2022-07-23T01:28:59;9.32;;;5.45;;
18818;SDS011;9537;45.594;9.294;2022-07-23T01:30:00;10.18;;;6.43;;
18818;SDS011;9537;45.594;9.294;2022-07-23T01:31:03;6.15;;;5.55;;
18818;SDS011;9537;45.594;9.294;2022-07-23T01:32:04;6.10;;;5.53;;
18818;SDS011;9537;45.594;9.294;2022-07-23T01:33:07;7.13;;;6.28;;
18818;SDS011;9537;45.594;9.294;2022-07-23T01:34:08;8.07;;;5.53;;
18818;SDS011;9537;45.594;9.294;2022-07-23T01:35:11;6.50;;;5.90;;
18818;SDS011;9537;45.594;9.294;2022-07-23T01:36:12;6.40;;;5.70;;
18818;SDS011;9537;45.594;9.294;2022-07-23T01:37:14;6.07;;;5.53;;
18818;SDS011;9537;45.594;9.294;2022-07-23T01:38:16;7.57;;;6.13;;
18818;SDS011;9537;45.594;9.294;2022-07-23T01:39:18;7.22;;;5.47;;
18818;SDS011;9537;45.594;9.294;2022-07-23T01:40:19;8.15;;;6.22;;
18818;SDS011;9537;45.594;9.294;2022-07-23T01:41:21;7.95;;;5.90;;
18818;SDS011;9537;45.594;9.294;2022-07-23T01:42:22;7.97;;;6.07;;
18818;SDS011;9537;45.594;9.294;2022-07-23T01:43:24;8.40;;;6.03;;
18818;SDS011;9537;45.594;9.294;2022-07-23T01:44:25;7.15;;;5.78;;
18818;SDS011;9537;45.594;9.294;2022-07-23T01:45:27;6.93;;;5.72;;
18818;SDS011;9537;45.594;9.294;2022-07-23T01:46:28;8.82;;;6.00;;
18818;SDS011;9537;45.594;9.294;2022-07-23T01:47:30;6.45;;;5.53;;
18818;SDS011;9537;45.594;9.294;2022-07-23T01:48:32;6.65;;;5.90;;
18818;SDS011;9537;45.594;9.294;2022-07-23T01:49:34;7.47;;;5.60;;
18818;SDS011;9537;45.594;9.294;2022-07-23T01:50:35;8.25;;;5.68;;
18818;SDS011;9537;45.594;9.294;2022-07-23T01:51:37;6.40;;;5.53;;
18818;SDS011;9537;45.594;9.294;2022-07-23T01:52:58;7.47;;;6.35;;
18818;SDS011;9537;45.594;9.294;2022-07-23T01:54:01;7.13;;;5.93;;
18818;SDS011;9537;45.594;9.294;2022-07-23T01:55:02;8.50;;;5.72;;
18818;SDS011;9537;45.594;9.294;2022-07-23T01:56:06;8.60;;;5.95;;
18818;SDS011;9537;45.594;9.294;2022-07-23T01:57:07;7.80;;;6.00;;
18818;SDS011;9537;45.594;9.294;2022-07-23T01:58:10;8.40;;;5.97;;
18818;SDS011;9537;45.594;9.294;2022-07-23T01:59:11;9.27;;;6.25;;
18818;SDS011;9537;45.594;9.294;2022-07-23T02:00:13;8.65;;;6.20;;
18818;SDS011;9537;45.594;9.294;2022-07-23T02:01:14;9.82;;;5.88;;
18818;SDS011;9537;45.594;9.294;2022-07-23T02:02:16;7.35;;;5.65;;
18818;SDS011;9537;45.594;9.294;2022-07-23T02:03:17;7.53;;;5.95;;
18818;SDS011;9537;45.594;9.294;2022-07-23T02:04:20;7.72;;;6.05;;
18818;SDS011;9537;45.594;9.294;2022-07-23T02:05:22;8.50;;;5.72;;
18818;SDS011;9537;45.594;9.294;2022-07-23T02:06:24;9.15;;;5.63;;
18818;SDS011;9537;45.594;9.294;2022-07-23T02:07:24;8.13;;;5.72;;
18818;SDS011;9537;45.594;9.294;2022-07-23T02:08:26;6.38;;;5.78;;
18818;SDS011;9537;45.594;9.294;2022-07-23T02:09:29;7.93;;;5.47;;
18818;SDS011;9537;45.594;9.294;2022-07-23T02:10:31;7.35;;;5.90;;
18818;SDS011;9537;45.594;9.294;2022-07-23T02:11:32;7.50;;;6.05;;
18818;SDS011;9537;45.594;9.294;2022-07-23T02:12:34;7.65;;;6.38;;
18818;SDS011;9537;45.594;9.294;2022-07-23T02:13:36;8.40;;;6.32;;
18818;SDS011;9537;45.594;9.294;2022-07-23T02:14:38;9.27;;;5.60;;
18818;SDS011;9537;45.594;9.294;2022-07-23T02:15:39;7.55;;;5.72;;
18818;SDS011;9537;45.594;9.294;2022-07-23T02:16:42;12.10;;;6.68;;
18818;SDS011;9537;45.594;9.294;2022-07-23T02:17:43;9.13;;;6.00;;
18818;SDS011;9537;45.594;9.294;2022-07-23T02:18:45;6.63;;;5.78;;
18818;SDS011;9537;45.594;9.294;2022-07-23T02:19:47;6.97;;;5.82;;
18818;SDS011;9537;45.594;9.294;2022-07-23T02:20:49;7.13;;;5.93;;
18818;SDS011;9537;45.594;9.294;2022-07-23T02:21:50;6.10;;;5.40;;
18818;SDS011;9537;45.594;9.294;2022-07-23T02:22:52;6.40;;;5.30;;
18818;SDS011;9537;45.594;9.294;2022-07-23T02:23:53;6.07;;;5.32;;
18818;SDS011;9537;45.594;9.294;2022-07-23T02:24:56;7.38;;;5.88;;
18818;SDS011;9537;45.594;9.294;2022-07-23T02:25:57;9.25;;;6.30;;
18818;SDS011;9537;45.594;9.294;2022-07-23T02:26:59;7.97;;;6.07;;
18818;SDS011;9537;45.594;9.294;2022-07-23T02:28:00;8.85;;;6.10;;
18818;SDS011;9537;45.594;9.294;2022-07-23T02:29:02;7.07;;;6.25;;
18818;SDS011;9537;45.594;9.294;2022-07-23T02:30:04;6.15;;;5.45;;
18818;SDS011;9537;45.594;9.294;2022-07-23T02:31:06;7.70;;;5.82;;
18818;SDS011;9537;45.594;9.294;2022-07-23T02:32:07;7.93;;;5.38;;
18818;SDS011;9537;45.594;9.294;2022-07-23T02:33:09;8.18;;;6.13;;
18818;SDS011;9537;45.594;9.294;2022-07-23T02:34:11;11.02;;;6.57;;
18818;SDS011;9537;45.594;9.294;2022-07-23T02:35:12;7.72;;;6.25;;
18818;SDS011;9537;45.594;9.294;2022-07-23T02:36:14;7.22;;;6.10;;
18818;SDS011;9537;45.594;9.294;2022-07-23T02:37:15;7.47;;;5.93;;
18818;SDS011;9537;45.594;9.294;2022-07-23T02:38:17;7.32;;;6.53;;
18818;SDS011;9537;45.594;9.294;2022-07-23T02:39:18;9.18;;;6.68;;
18818;SDS011;9537;45.594;9.294;2022-07-23T02:40:21;7.25;;;6.07;;
18818;SDS011;9537;45.594;9.294;2022-07-23T02:41:22;5.97;;;5.38;;
18818;SDS011;9537;45.594;9.294;2022-07-23T02:42:25;10.00;;;6.00;;
18818;SDS011;9537;45.594;9.294;2022-07-23T02:43:26;7.32;;;5.82;;
18818;SDS011;9537;45.594;9.294;2022-07-23T02:44:27;7.88;;;6.20;;
18818;SDS011;9537;45.594;9.294;2022-07-23T02:45:28;6.60;;;5.95;;
18818;SDS011;9537;45.594;9.294;2022-07-23T02:46:32;9.25;;;6.30;;
18818;SDS011;9537;45.594;9.294;2022-07-23T02:47:33;9.43;;;5.68;;
18818;SDS011;9537;45.594;9.294;2022-07-23T02:48:34;8.27;;;6.25;;
18818;SDS011;9537;45.594;9.294;2022-07-23T02:49:36;7.53;;;6.55;;
18818;SDS011;9537;45.594;9.294;2022-07-23T02:50:38;7.13;;;5.75;;
18818;SDS011;9537;45.594;9.294;2022-07-23T02:51:39;7.75;;;6.32;;
18818;SDS011;9537;45.594;9.294;2022-07-23T02:52:41;13.07;;;6.72;;
18818;SDS011;9537;45.594;9.294;2022-07-23T02:53:41;7.60;;;6.75;;
18818;SDS011;9537;45.594;9.294;2022-07-23T02:54:43;7.00;;;6.30;;
18818;SDS011;9537;45.594;9.294;2022-07-23T02:55:46;7.85;;;6.13;;
18818;SDS011;9537;45.594;9.294;2022-07-23T02:56:47;12.80;;;6.45;;
18818;SDS011;9537;45.594;9.294;2022-07-23T02:57:51;8.63;;;6.35;;
18818;SDS011;9537;45.594;9.294;2022-07-23T02:58:52;10.07;;;6.53;;
18818;SDS011;9537;45.594;9.294;2022-07-23T02:59:54;9.60;;;6.65;;
18818;SDS011;9537;45.594;9.294;2022-07-23T03:00:56;8.10;;;5.95;;
18818;SDS011;9537;45.594;9.294;2022-07-23T03:01:57;7.30;;;6.22;;
18818;SDS011;9537;45.594;9.294;2022-07-23T03:02:59;7.60;;;6.35;;
18818;SDS011;9537;45.594;9.294;2022-07-23T03:04:00;6.80;;;6.10;;
18818;SDS011;9537;45.594;9.294;2022-07-23T03:05:03;8.40;;;6.20;;
18818;SDS011;9537;45.594;9.294;2022-07-23T03:06:04;9.80;;;7.03;;
18818;SDS011;9537;45.594;9.294;2022-07-23T03:07:06;8.80;;;6.55;;
18818;SDS011;9537;45.594;9.294;2022-07-23T03:08:07;7.72;;;6.93;;
18818;SDS011;9537;45.594;9.294;2022-07-23T03:09:09;7.38;;;6.20;;
18818;SDS011;9537;45.594;9.294;2022-07-23T03:10:10;6.93;;;6.05;;
18818;SDS011;9537;45.594;9.294;2022-07-23T03:11:13;9.05;;;6.15;;
18818;SDS011;9537;45.594;9.294;2022-07-23T03:12:14;6.70;;;5.75;;
18818;SDS011;9537;45.594;9.294;2022-07-23T03:13:17;8.55;;;6.10;;
18818;SDS011;9537;45.594;9.294;2022-07-23T03:14:18;9.80;;;7.05;;
18818;SDS011;9537;45.594;9.294;2022-07-23T03:15:20;8.02;;;5.93;;
18818;SDS011;9537;45.594;9.294;2022-07-23T03:16:21;10.20;;;6.85;;
18818;SDS011;9537;45.594;9.294;2022-07-23T03:17:23;10.68;;;7.00;;
18818;SDS011;9537;45.594;9.294;2022-07-23T03:18:24;6.95;;;6.25;;
18818;SDS011;9537;45.594;9.294;2022-07-23T03:19:26;7.93;;;7.10;;
18818;SDS011;9537;45.594;9.294;2022-07-23T03:20:27;7.70;;;6.50;;
18818;SDS011;9537;45.594;9.294;2022-07-23T03:21:29;9.25;;;6.63;;
18818;SDS011;9537;45.594;9.294;2022-07-23T03:22:30;9.05;;;6.57;;
18818;SDS011;9537;45.594;9.294;2022-07-23T03:23:31;11.55;;;6.72;;
18818;SDS011;9537;45.594;9.294;2022-07-23T03:24:33;10.25;;;6.50;;
18818;SDS011;9537;45.594;9.294;2022-07-23T03:25:52;8.25;;;6.63;;
18818;SDS011;9537;45.594;9.294;2022-07-23T03:26:55;11.07;;;6.80;;
18818;SDS011;9537;45.594;9.294;2022-07-23T03:27:56;7.70;;;6.20;;
18818;SDS011;9537;45.594;9.294;2022-07-23T03:28:58;10.15;;;6.32;;
18818;SDS011;9537;45.594;9.294;2022-07-23T03:29:59;7.38;;;5.88;;
18818;SDS011;9537;45.594;9.294;2022-07-23T03:31:01;7.97;;;5.90;;
18818;SDS011;9537;45.594;9.294;2022-07-23T03:32:02;13.05;;;6.00;;
18818;SDS011;9537;45.594;9.294;2022-07-23T03:33:05;6.93;;;6.10;;
18818;SDS011;9537;45.594;9.294;2022-07-23T03:34:06;9.07;;;7.03;;
18818;SDS011;9537;45.594;9.294;2022-07-23T03:35:08;7.30;;;5.88;;
18818;SDS011;9537;45.594;9.294;2022-07-23T03:36:10;8.32;;;6.32;;
18818;SDS011;9537;45.594;9.294;2022-07-23T03:37:12;6.63;;;5.97;;
18818;SDS011;9537;45.594;9.294;2022-07-23T03:38:13;6.95;;;6.32;;
18818;SDS011;9537;45.594;9.294;2022-07-23T03:39:15;6.65;;;5.97;;
18818;SDS011;9537;45.594;9.294;2022-07-23T03:40:16;7.20;;;6.45;;
18818;SDS011;9537;45.594;9.294;2022-07-23T03:41:18;8.38;;;6.10;;
18818;SDS011;9537;45.594;9.294;2022-07-23T03:42:21;7.65;;;6.75;;
18818;SDS011;9537;45.594;9.294;2022-07-23T03:43:23;7.35;;;6.30;;
18818;SDS011;9537;45.594;9.294;2022-07-23T03:44:26;9.27;;;6.60;;
18818;SDS011;9537;45.594;9.294;2022-07-23T03:45:28;7.20;;;6.43;;
18818;SDS011;9537;45.594;9.294;2022-07-23T03:46:29;7.20;;;6.43;;
18818;SDS011;9537;45.594;9.294;2022-07-23T03:47:31;7.60;;;6.38;;
18818;SDS011;9537;45.594;9.294;2022-07-23T03:48:32;9.50;;;6.25;;
18818;SDS011;9537;45.594;9.294;2022-07-23T03:49:34;8.50;;;6.55;;
18818;SDS011;9537;45.594;9.294;2022-07-23T03:50:35;7.05;;;6.35;;
18818;SDS011;9537;45.594;9.294;2022-07-23T03:51:37;7.13;;;6.13;;
18818;SDS011;9537;45.594;9.294;2022-07-23T03:52:38;11.38;;;6.93;;
18818;SDS011;9537;45.594;9.294;2022-07-23T03:53:40;8.70;;;6.35;;
18818;SDS011;9537;45.594;9.294;2022-07-23T03:54:41;10.40;;;6.85;;
18818;SDS011;9537;45.594;9.294;2022-07-23T03:55:43;6.90;;;6.20;;
18818;SDS011;9537;45.594;9.294;2022-07-23T03:56:44;11.68;;;6.88;;
18818;SDS011;9537;45.594;9.294;2022-07-23T03:57:47;8.55;;;6.15;;
18818;SDS011;9537;45.594;9.294;2022-07-23T03:58:49;7.53;;;6.40;;
18818;SDS011;9537;45.594;9.294;2022-07-23T03:59:50;6.90;;;5.93;;
18818;SDS011;9537;45.594;9.294;2022-07-23T04:00:52;6.50;;;5.75;;
18818;SDS011;9537;45.594;9.294;2022-07-23T04:01:53;9.15;;;6.40;;
18818;SDS011;9537;45.594;9.294;2022-07-23T04:02:55;8.23;;;6.35;;
18818;SDS011;9537;45.594;9.294;2022-07-23T04:03:56;6.47;;;5.82;;
18818;SDS011;9537;45.594;9.294;2022-07-23T04:04:58;7.20;;;6.15;;
18818;SDS011;9537;45.594;9.294;2022-07-23T04:06:01;9.18;;;6.28;;
18818;SDS011;9537;45.594;9.294;2022-07-23T04:07:02;8.95;;;6.90;;
18818;SDS011;9537;45.594;9.294;2022-07-23T04:08:04;7.68;;;6.63;;
18818;SDS011;9537;45.594;9.294;2022-07-23T04:09:06;11.40;;;6.47;;
18818;SDS011;9537;45.594;9.294;2022-07-23T04:10:07;8.02;;;6.22;;
18818;SDS011;9537;45.594;9.294;2022-07-23T04:11:09;7.97;;;6.28;;
18818;SDS011;9537;45.594;9.294;2022-07-23T04:12:10;11.23;;;6.25;;
18818;SDS011;9537;45.594;9.294;2022-07-23T04:13:13;7.80;;;5.88;;
18818;SDS011;9537;45.594;9.294;2022-07-23T04:14:14;7.10;;;6.32;;
18818;SDS011;9537;45.594;9.294;2022-07-23T04:15:16;6.50;;;5.82;;
18818;SDS011;9537;45.594;9.294;2022-07-23T04:16:17;33.95;;;8.38;;
18818;SDS011;9537;45.594;9.294;2022-07-23T04:17:19;83.88;;;13.52;;
18818;SDS011;9537;45.594;9.294;2022-07-23T04:18:21;96.63;;;12.52;;
18818;SDS011;9537;45.594;9.294;2022-07-23T04:19:24;130.30;;;15.52;;
18818;SDS011;9537;45.594;9.294;2022-07-23T04:20:26;71.18;;;12.02;;
18818;SDS011;9537;45.594;9.294;2022-07-23T04:21:27;49.22;;;9.65;;
18818;SDS011;9537;45.594;9.294;2022-07-23T04:22:29;29.33;;;8.35;;
18818;SDS011;9537;45.594;9.294;2022-07-23T04:23:30;34.17;;;7.95;;
18818;SDS011;9537;45.594;9.294;2022-07-23T04:24:32;22.73;;;8.10;;
18818;SDS011;9537;45.594;9.294;2022-07-23T04:25:33;17.80;;;7.60;;
18818;SDS011;9537;45.594;9.294;2022-07-23T04:26:35;14.15;;;6.65;;
18818;SDS011;9537;45.594;9.294;2022-07-23T04:27:36;8.98;;;6.43;;
18818;SDS011;9537;45.594;9.294;2022-07-23T04:28:39;10.82;;;6.35;;
18818;SDS011;9537;45.594;9.294;2022-07-23T04:29:40;9.52;;;6.25;;
18818;SDS011;9537;45.594;9.294;2022-07-23T04:30:42;7.90;;;5.72;;
18818;SDS011;9537;45.594;9.294;2022-07-23T04:31:43;10.43;;;6.53;;
18818;SDS011;9537;45.594;9.294;2022-07-23T04:32:45;6.07;;;5.47;;
18818;SDS011;9537;45.594;9.294;2022-07-23T04:33:46;6.40;;;5.70;;
18818;SDS011;9537;45.594;9.294;2022-07-23T04:34:48;7.75;;;6.00;;
18818;SDS011;9537;45.594;9.294;2022-07-23T04:35:49;6.97;;;6.00;;
18818;SDS011;9537;45.594;9.294;2022-07-23T04:36:51;9.45;;;6.03;;
18818;SDS011;9537;45.594;9.294;2022-07-23T04:37:52;7.97;;;6.10;;
18818;SDS011;9537;45.594;9.294;2022-07-23T04:38:54;8.40;;;6.60;;
18818;SDS011;9537;45.594;9.294;2022-07-23T04:39:56;10.18;;;6.43;;
18818;SDS011;9537;45.594;9.294;2022-07-23T04:40:58;18.00;;;6.65;;
18818;SDS011;9537;45.594;9.294;2022-07-23T04:41:59;13.27;;;6.15;;
18818;SDS011;9537;45.594;9.294;2022-07-23T04:43:01;17.23;;;6.43;;
18818;SDS011;9537;45.594;9.294;2022-07-23T04:44:03;25.05;;;7.35;;
18818;SDS011;9537;45.594;9.294;2022-07-23T04:45:06;17.27;;;6.53;;
18818;SDS011;9537;45.594;9.294;2022-07-23T04:46:08;25.50;;;7.10;;
18818;SDS011;9537;45.594;9.294;2022-07-23T04:47:11;27.08;;;7.25;;
18818;SDS011;9537;45.594;9.294;2022-07-23T04:48:11;21.02;;;6.55;;
18818;SDS011;9537;45.594;9.294;2022-07-23T04:49:13;19.33;;;8.43;;
18818;SDS011;9537;45.594;9.294;2022-07-23T04:50:14;12.90;;;6.50;;
18818;SDS011;9537;45.594;9.294;2022-07-23T04:51:21;11.57;;;6.38;;
18818;SDS011;9537;45.594;9.294;2022-07-23T04:52:22;8.48;;;5.97;;
18818;SDS011;9537;45.594;9.294;2022-07-23T04:53:24;10.85;;;5.55;;
18818;SDS011;9537;45.594;9.294;2022-07-23T04:54:25;9.30;;;5.53;;
18818;SDS011;9537;45.594;9.294;2022-07-23T04:55:27;11.27;;;6.63;;
18818;SDS011;9537;45.594;9.294;2022-07-23T04:56:28;12.85;;;6.10;;
18818;SDS011;9537;45.594;9.294;2022-07-23T04:57:30;12.95;;;5.68;;
18818;SDS011;9537;45.594;9.294;2022-07-23T04:58:31;7.13;;;5.53;;
18818;SDS011;9537;45.594;9.294;2022-07-23T04:59:34;9.02;;;5.65;;
18818;SDS011;9537;45.594;9.294;2022-07-23T05:00:35;9.75;;;5.97;;
18818;SDS011;9537;45.594;9.294;2022-07-23T05:01:37;10.15;;;6.15;;
18818;SDS011;9537;45.594;9.294;2022-07-23T05:02:39;11.38;;;6.28;;
18818;SDS011;9537;45.594;9.294;2022-07-23T05:03:41;14.27;;;6.10;;
18818;SDS011;9537;45.594;9.294;2022-07-23T05:04:43;9.88;;;5.75;;
18818;SDS011;9537;45.594;9.294;2022-07-23T05:05:44;8.05;;;6.07;;
18818;SDS011;9537;45.594;9.294;2022-07-23T05:06:46;10.50;;;6.38;;
18818;SDS011;9537;45.594;9.294;2022-07-23T05:07:47;8.82;;;5.88;;
18818;SDS011;9537;45.594;9.294;2022-07-23T05:08:49;8.38;;;5.38;;
18818;SDS011;9537;45.594;9.294;2022-07-23T05:09:50;10.18;;;5.22;;
18818;SDS011;9537;45.594;9.294;2022-07-23T05:10:52;8.80;;;5.10;;
18818;SDS011;9537;45.594;9.294;2022-07-23T05:11:53;9.75;;;5.65;;
18818;SDS011;9537;45.594;9.294;2022-07-23T05:12:55;8.93;;;5.13;;
18818;SDS011;9537;45.594;9.294;2022-07-23T05:13:56;12.23;;;6.18;;
18818;SDS011;9537;45.594;9.294;2022-07-23T05:14:59;10.98;;;6.60;;
18818;SDS011;9537;45.594;9.294;2022-07-23T05:16:00;16.70;;;6.63;;
18818;SDS011;9537;45.594;9.294;2022-07-23T05:17:02;12.02;;;5.65;;
18818;SDS011;9537;45.594;9.294;2022-07-23T05:18:03;12.20;;;6.30;;
18818;SDS011;9537;45.594;9.294;2022-07-23T05:19:05;14.20;;;6.40;;
18818;SDS011;9537;45.594;9.294;2022-07-23T05:20:06;13.48;;;6.25;;
18818;SDS011;9537;45.594;9.294;2022-07-23T05:21:08;11.93;;;6.22;;
18818;SDS011;9537;45.594;9.294;2022-07-23T05:22:09;10.68;;;5.80;;
18818;SDS011;9537;45.594;9.294;2022-07-23T05:23:11;11.48;;;6.05;;
18818;SDS011;9537;45.594;9.294;2022-07-23T05:24:12;15.65;;;6.95;;
18818;SDS011;9537;45.594;9.294;2022-07-23T05:25:14;9.18;;;5.60;;
18818;SDS011;9537;45.594;9.294;2022-07-23T05:26:15;8.95;;;5.75;;
18818;SDS011;9537;45.594;9.294;2022-07-23T05:27:17;11.45;;;5.72;;
18818;SDS011;9537;45.594;9.294;2022-07-23T05:28:18;8.43;;;5.65;;
18818;SDS011;9537;45.594;9.294;2022-07-23T05:29:20;10.93;;;5.63;;
18818;SDS011;9537;45.594;9.294;2022-07-23T05:30:22;11.50;;;5.75;;
18818;SDS011;9537;45.594;9.294;2022-07-23T05:31:24;9.13;;;5.43;;
18818;SDS011;9537;45.594;9.294;2022-07-23T05:32:25;8.68;;;4.90;;
18818;SDS011;9537;45.594;9.294;2022-07-23T05:33:27;7.40;;;5.38;;
18818;SDS011;9537;45.594;9.294;2022-07-23T05:34:28;8.40;;;4.40;;
18818;SDS011;9537;45.594;9.294;2022-07-23T05:35:30;7.28;;;3.90;;
18818;SDS011;9537;45.594;9.294;2022-07-23T05:36:32;5.90;;;4.25;;
18818;SDS011;9537;45.594;9.294;2022-07-23T05:37:33;7.63;;;4.32;;
18818;SDS011;9537;45.594;9.294;2022-07-23T05:38:35;11.23;;;4.38;;
18818;SDS011;9537;45.594;9.294;2022-07-23T05:39:36;5.72;;;4.15;;
18818;SDS011;9537;45.594;9.294;2022-07-23T05:40:38;9.68;;;4.10;;
18818;SDS011;9537;45.594;9.294;2022-07-23T05:41:39;6.30;;;3.83;;
18818;SDS011;9537;45.594;9.294;2022-07-23T05:42:41;5.57;;;3.45;;
18818;SDS011;9537;45.594;9.294;2022-07-23T05:43:42;8.13;;;3.53;;
18818;SDS011;9537;45.594;9.294;2022-07-23T05:44:44;7.28;;;3.60;;
18818;SDS011;9537;45.594;9.294;2022-07-23T05:45:47;10.80;;;4.22;;
18818;SDS011;9537;45.594;9.294;2022-07-23T05:46:48;8.32;;;3.70;;
18818;SDS011;9537;45.594;9.294;2022-07-23T05:47:50;10.93;;;3.65;;
18818;SDS011;9537;45.594;9.294;2022-07-23T05:48:51;9.50;;;5.05;;
18818;SDS011;9537;45.594;9.294;2022-07-23T05:49:53;11.68;;;4.40;;
18818;SDS011;9537;45.594;9.294;2022-07-23T05:50:54;7.57;;;3.90;;
18818;SDS011;9537;45.594;9.294;2022-07-23T05:51:56;7.53;;;4.45;;
18818;SDS011;9537;45.594;9.294;2022-07-23T05:52:57;8.57;;;4.82;;
18818;SDS011;9537;45.594;9.294;2022-07-23T05:53:59;9.65;;;4.68;;
18818;SDS011;9537;45.594;9.294;2022-07-23T05:55:00;9.68;;;4.30;;
18818;SDS011;9537;45.594;9.294;2022-07-23T05:56:02;6.35;;;4.10;;
18818;SDS011;9537;45.594;9.294;2022-07-23T05:57:03;7.95;;;4.30;;
18818;SDS011;9537;45.594;9.294;2022-07-23T05:58:05;8.82;;;4.32;;
18818;SDS011;9537;45.594;9.294;2022-07-23T05:59:06;5.85;;;4.38;;
18818;SDS011;9537;45.594;9.294;2022-07-23T06:00:09;6.22;;;3.92;;
18818;SDS011;9537;45.594;9.294;2022-07-23T06:01:12;7.53;;;4.40;;
18818;SDS011;9537;45.594;9.294;2022-07-23T06:02:14;5.82;;;3.78;;
18818;SDS011;9537;45.594;9.294;2022-07-23T06:03:15;6.63;;;3.97;;
18818;SDS011;9537;45.594;9.294;2022-07-23T06:04:17;9.73;;;4.40;;
18818;SDS011;9537;45.594;9.294;2022-07-23T06:05:18;5.88;;;4.00;;
18818;SDS011;9537;45.594;9.294;2022-07-23T06:06:20;4.82;;;3.70;;
18818;SDS011;9537;45.594;9.294;2022-07-23T06:07:21;7.03;;;3.78;;
18818;SDS011;9537;45.594;9.294;2022-07-23T06:08:23;5.28;;;3.70;;
18818;SDS011;9537;45.594;9.294;2022-07-23T06:09:24;10.38;;;3.90;;
18818;SDS011;9537;45.594;9.294;2022-07-23T06:10:26;10.15;;;4.30;;
18818;SDS011;9537;45.594;9.294;2022-07-23T06:11:27;7.63;;;4.05;;
18818;SDS011;9537;45.594;9.294;2022-07-23T06:12:30;9.10;;;3.83;;
18818;SDS011;9537;45.594;9.294;2022-07-23T06:13:31;5.40;;;3.55;;
18818;SDS011;9537;45.594;9.294;2022-07-23T06:14:33;6.07;;;4.05;;
18818;SDS011;9537;45.594;9.294;2022-07-23T06:15:34;5.18;;;3.63;;
18818;SDS011;9537;45.594;9.294;2022-07-23T06:16:37;6.20;;;3.40;;
18818;SDS011;9537;45.594;9.294;2022-07-23T06:17:38;4.95;;;3.63;;